Terminal Aerodrome Forecast
Issued by NWS Lake Charles, LA

Home | Current Version | Previous Version | Text Only | Print | Product List | Glossary On
Versions: 1 2 3 4 5 6 7 8 9 10 11 12 13 14 15 16 17
000
FTUS44 KLCH 162300
TAFLFT
TAF
KLFT 162325Z 1700/1724 VRB05KT P6SM -SHRA VCTS SCT035CB BKN080
      TEMPO 1700/1701 VRB10G20KT 4SM SHRA BKN025
     FM170300 VRB03KT P6SM BKN200
     FM171300 VRB05KT P6SM VCSH SCT025 BKN250
     FM171800 21006KT P6SM VCTS BKN040CB PROB30 1718/1724 VRB15G25KT
      3SM TSRA BKN030CB=

USA.gov is the U.S. government's official web portal to all federal, state and local government web resources and services.